createdAt,value
2022-10-19T00:01:19.944Z,174.87
2022-10-19T00:06:25.814Z,163.97
2022-10-19T00:08:54.398Z,168.57
2022-10-19T00:11:23.634Z,171.27
2022-10-19T00:13:52.957Z,181.77
2022-10-19T00:16:21.165Z,172.33
2022-10-19T00:18:49.237Z,177.07
2022-10-19T00:21:18.931Z,172.37
2022-10-19T00:23:47.200Z,166.70
2022-10-19T00:26:14.990Z,170.87
2022-10-19T00:28:43.159Z,212.63
2022-10-19T00:31:14.315Z,166.43
2022-10-19T00:33:42.177Z,167.83
2022-10-19T00:36:22.027Z,165.20
2022-10-19T00:38:49.957Z,178.47
2022-10-19T00:41:18.951Z,156.27
2022-10-19T00:59:09.310Z,163.83
2022-10-19T01:01:37.216Z,167.83
2022-10-19T01:04:06.034Z,159.67
2022-10-19T01:06:34.099Z,179.50
2022-10-19T01:09:01.771Z,159.80
2022-10-19T01:11:38.677Z,166.00
2022-10-19T01:14:20.918Z,172.03
2022-10-19T01:16:53.601Z,169.57
2022-10-19T01:20:02.812Z,173.87
2022-10-19T01:22:37.458Z,167.10
2022-10-19T01:25:14.162Z,166.43
2022-10-19T01:28:04.860Z,183.13
2022-10-19T01:30:43.389Z,176.50
2022-10-19T01:33:20.304Z,138.03
2022-10-19T01:35:54.612Z,129.53
2022-10-19T01:38:27.314Z,129.67
2022-10-19T01:40:58.034Z,128.73
2022-10-19T01:43:33.911Z,141.67
2022-10-19T01:46:08.225Z,139.03
2022-10-19T01:48:37.193Z,124.10
2022-10-19T01:51:07.334Z,131.80
2022-10-19T01:53:38.953Z,136.23
2022-10-19T01:56:07.436Z,129.40
2022-10-19T01:58:37.161Z,136.03
2022-10-19T02:01:08.308Z,132.70
2022-10-19T02:03:37.428Z,130.90
2022-10-19T02:06:06.590Z,136.00
2022-10-19T02:08:39.204Z,133.00
2022-10-19T02:11:07.003Z,133.17
2022-10-19T02:13:34.723Z,126.17
2022-10-19T02:16:07.028Z,128.43
2022-10-19T02:18:38.605Z,128.27
2022-10-19T02:21:07.378Z,120.50
2022-10-19T02:23:35.464Z,126.20
2022-10-19T02:26:03.363Z,126.10
2022-10-19T02:28:31.373Z,109.87
2022-10-19T02:31:00.362Z,138.87
2022-10-19T02:33:30.145Z,128.07
2022-10-19T02:35:58.229Z,136.50
2022-10-19T02:38:26.320Z,132.63
2022-10-19T02:41:01.366Z,139.30
2022-10-19T02:43:29.622Z,137.87
2022-10-19T02:46:02.405Z,134.03
2022-10-19T02:48:33.658Z,142.57
2022-10-19T02:51:01.280Z,134.93
2022-10-19T02:53:29.669Z,145.37
2022-10-19T02:55:57.303Z,135.20
2022-10-19T02:58:24.932Z,142.03
2022-10-19T03:00:52.637Z,133.43
2022-10-19T03:03:20.272Z,134.97
2022-10-19T03:05:49.269Z,128.27
2022-10-19T03:08:16.914Z,133.00
2022-10-19T03:10:44.528Z,133.80
2022-10-19T03:13:12.162Z,133.13
2022-10-19T03:15:40.177Z,132.40
2022-10-19T03:18:07.816Z,134.67
2022-10-19T03:20:35.441Z,128.67
2022-10-19T03:23:04.761Z,137.13
2022-10-19T03:25:32.401Z,132.27
2022-10-19T03:28:00.166Z,128.90
2022-10-19T03:30:27.798Z,135.07
2022-10-19T03:32:55.549Z,127.43
2022-10-19T03:35:23.245Z,132.70
2022-10-19T03:37:50.889Z,130.07
2022-10-19T03:40:19.888Z,131.90
2022-10-19T03:42:47.533Z,138.13
2022-10-19T03:45:15.234Z,132.37
2022-10-19T03:47:42.892Z,133.93
2022-10-19T03:50:14.064Z,134.10
2022-10-19T03:52:41.725Z,127.90
2022-10-19T03:55:10.420Z,134.13
2022-10-19T03:57:39.419Z,134.50
2022-10-19T04:00:08.068Z,136.70
2022-10-19T04:02:35.728Z,136.80
2022-10-19T04:05:03.404Z,133.00
2022-10-19T04:07:31.200Z,137.70
2022-10-19T04:09:59.469Z,133.63
2022-10-19T04:12:27.124Z,130.27
2022-10-19T04:14:57.710Z,124.70
2022-10-19T04:17:26.367Z,128.87
2022-10-19T04:19:54.453Z,124.10
2022-10-19T04:22:22.077Z,127.33
2022-10-19T04:24:49.722Z,128.47
2022-10-19T04:27:17.406Z,122.13
2022-10-19T04:29:45.463Z,126.57
2022-10-19T04:32:14.497Z,126.87
2022-10-19T04:34:42.129Z,130.10
2022-10-19T04:37:09.762Z,129.50
2022-10-19T04:39:40.737Z,130.47
2022-10-19T04:42:08.412Z,129.87
2022-10-19T04:44:36.026Z,124.50
2022-10-19T04:47:03.720Z,130.23
2022-10-19T04:49:32.707Z,126.73
2022-10-19T04:52:00.318Z,128.00
2022-10-19T04:54:27.974Z,128.57
2022-10-19T04:56:55.602Z,128.00
2022-10-19T04:59:23.258Z,135.67
2022-10-19T05:01:50.967Z,165.20
2022-10-19T05:04:18.625Z,138.70
2022-10-19T05:06:47.707Z,130.17
2022-10-19T05:09:15.517Z,131.30
2022-10-19T05:11:43.133Z,141.90
2022-10-19T05:14:10.914Z,129.50
2022-10-19T05:16:38.611Z,128.57
2022-10-19T05:19:06.253Z,125.87
2022-10-19T05:21:34.145Z,127.77
2022-10-19T05:24:03.166Z,121.07
2022-10-19T05:26:30.822Z,119.17
2022-10-19T05:29:01.658Z,122.63
2022-10-19T05:31:31.146Z,119.93
2022-10-19T05:33:59.105Z,123.03
2022-10-19T05:36:28.245Z,120.33
2022-10-19T05:38:57.191Z,125.23
2022-10-19T05:41:27.554Z,124.67
2022-10-19T05:43:56.959Z,124.87
2022-10-19T05:46:25.292Z,122.47
2022-10-19T05:48:52.896Z,101.83
2022-10-19T05:51:22.061Z,95.33
2022-10-19T05:53:50.407Z,98.73
2022-10-19T05:56:19.613Z,100.73
2022-10-19T05:58:49.382Z,108.73
2022-10-19T06:01:18.897Z,102.30
2022-10-19T06:03:47.313Z,98.77
2022-10-19T06:06:15.136Z,103.20
2022-10-19T06:08:42.801Z,105.33
2022-10-19T06:11:12.403Z,108.90
2022-10-19T06:13:41.009Z,106.27
2022-10-19T06:16:11.094Z,106.50
2022-10-19T06:18:39.237Z,108.47
2022-10-19T06:21:10.929Z,98.07
2022-10-19T06:23:38.986Z,110.23
2022-10-19T06:26:08.930Z,110.03
2022-10-19T06:28:37.434Z,112.53
2022-10-19T06:31:08.427Z,110.77
2022-10-19T06:33:40.473Z,108.87
2022-10-19T06:36:08.658Z,114.00
2022-10-19T06:38:36.290Z,122.23
2022-10-19T06:41:04.062Z,112.43
2022-10-19T06:43:31.697Z,113.07
2022-10-19T06:45:59.676Z,112.17
2022-10-19T06:48:27.310Z,112.13
2022-10-19T06:51:00.400Z,114.03
2022-10-19T06:53:29.142Z,116.80
2022-10-19T06:55:58.585Z,108.43
2022-10-19T06:58:26.655Z,116.77
2022-10-19T07:00:58.135Z,113.70
2022-10-19T07:03:25.795Z,118.50
2022-10-19T07:05:54.699Z,114.77
2022-10-19T07:08:23.864Z,121.30
2022-10-19T07:10:52.465Z,119.10
2022-10-19T07:13:20.270Z,114.70
2022-10-19T07:15:48.037Z,116.07
2022-10-19T07:18:16.046Z,119.03
2022-10-19T07:20:43.694Z,118.23
2022-10-19T07:23:11.335Z,104.63
2022-10-19T07:25:40.298Z,109.33
2022-10-19T07:28:08.334Z,114.83
2022-10-19T07:30:38.992Z,108.90
2022-10-19T07:33:06.791Z,115.23
2022-10-19T07:35:34.542Z,119.27
2022-10-19T07:38:02.168Z,114.17
2022-10-19T07:40:29.894Z,121.47
2022-10-19T07:42:58.873Z,121.77
2022-10-19T07:45:26.517Z,120.47
2022-10-19T07:47:54.161Z,115.13
2022-10-19T07:50:23.025Z,116.90
2022-10-19T07:52:52.601Z,112.03
2022-10-19T07:55:20.430Z,113.97
2022-10-19T07:57:48.652Z,108.90
2022-10-19T08:00:18.297Z,111.10
2022-10-19T08:03:00.160Z,122.03
2022-10-19T08:05:33.641Z,125.50
2022-10-19T08:08:01.650Z,121.57
2022-10-19T08:10:29.289Z,124.57
2022-10-19T08:12:56.970Z,114.20
2022-10-19T08:15:26.581Z,126.97
2022-10-19T08:17:54.241Z,124.17
2022-10-19T08:20:21.917Z,127.40
2022-10-19T08:22:49.573Z,125.67
2022-10-19T08:25:17.270Z,126.37
2022-10-19T08:27:44.899Z,119.33
2022-10-19T08:30:12.713Z,123.77
2022-10-19T08:32:41.784Z,117.37
2022-10-19T08:35:10.795Z,134.47
2022-10-19T08:37:45.175Z,129.83
2022-10-19T08:40:18.333Z,133.00
2022-10-19T08:42:52.309Z,125.67
2022-10-19T08:45:28.536Z,131.00
2022-10-19T08:48:02.026Z,126.27
2022-10-19T08:50:34.113Z,119.80
2022-10-19T08:53:04.174Z,137.83
2022-10-19T08:55:42.098Z,128.07
2022-10-19T08:58:20.874Z,130.13
2022-10-19T09:00:50.733Z,128.03
2022-10-19T09:03:37.395Z,131.27
2022-10-19T09:06:19.878Z,133.20
2022-10-19T09:08:49.296Z,140.67
2022-10-19T09:11:19.124Z,132.17
2022-10-19T09:14:05.832Z,133.13
2022-10-19T09:16:34.717Z,124.00
2022-10-19T09:19:04.048Z,130.53
2022-10-19T09:21:47.107Z,131.67
2022-10-19T09:24:23.070Z,133.03
2022-10-19T09:26:53.737Z,129.80
2022-10-19T09:29:27.281Z,130.97
2022-10-19T09:34:35.066Z,138.87
2022-10-19T09:37:03.007Z,139.37
2022-10-19T09:39:31.943Z,133.13
2022-10-19T09:42:02.599Z,139.03
2022-10-19T09:44:31.501Z,140.93
2022-10-19T09:47:03.908Z,142.13
2022-10-19T09:49:41.852Z,190.60
2022-10-19T09:52:25.197Z,138.37
2022-10-19T09:55:01.069Z,131.00
2022-10-19T09:57:28.731Z,142.43
2022-10-19T09:59:56.405Z,140.73
2022-10-19T10:02:30.765Z,139.50
2022-10-19T10:05:06.374Z,142.70
2022-10-19T10:07:36.785Z,146.57
2022-10-19T10:10:11.455Z,146.37
2022-10-19T10:12:41.054Z,134.30
2022-10-19T10:15:09.506Z,143.43
2022-10-19T10:17:38.459Z,134.53
2022-10-19T10:20:20.835Z,140.60
2022-10-19T10:22:56.505Z,139.17
2022-10-19T10:25:27.764Z,146.37
2022-10-19T10:27:57.810Z,144.73
2022-10-19T10:30:25.486Z,146.13
2022-10-19T10:32:54.989Z,142.40
2022-10-19T10:35:26.484Z,134.53
2022-10-19T10:37:54.379Z,142.67
2022-10-19T10:40:24.550Z,126.73
2022-10-19T10:42:53.522Z,144.50
2022-10-19T10:45:25.161Z,147.27
2022-10-19T10:47:53.401Z,142.13
2022-10-19T10:50:25.330Z,148.27
2022-10-19T10:52:58.797Z,146.37
2022-10-19T10:55:26.905Z,135.33
2022-10-19T10:58:06.133Z,143.23
2022-10-19T11:00:35.502Z,143.83
2022-10-19T11:03:09.329Z,139.73
2022-10-19T11:05:42.185Z,143.83
2022-10-19T11:08:18.727Z,139.23
2022-10-19T11:10:51.197Z,145.50
2022-10-19T11:13:22.789Z,154.13
2022-10-19T11:15:54.944Z,144.53
2022-10-19T11:18:24.405Z,141.20
2022-10-19T11:21:02.326Z,144.20
2022-10-19T11:23:42.382Z,150.87
2022-10-19T11:26:30.356Z,158.27
2022-10-19T11:29:07.458Z,143.10
2022-10-19T11:31:41.489Z,137.30
2022-10-19T11:34:23.702Z,154.53
2022-10-19T11:36:58.066Z,148.23
2022-10-19T11:39:43.070Z,142.90
2022-10-19T11:42:15.857Z,155.10
2022-10-19T11:44:54.054Z,143.20
2022-10-19T11:47:51.018Z,155.70
2022-10-19T11:50:32.175Z,148.90
2022-10-19T11:53:06.396Z,159.80
2022-10-19T11:55:40.702Z,142.20
2022-10-19T11:58:25.441Z,154.03
2022-10-19T12:00:58.958Z,138.87
2022-10-19T12:04:00.057Z,156.60
2022-10-19T12:06:32.163Z,153.77
2022-10-19T12:09:18.292Z,147.70
2022-10-19T12:11:53.175Z,141.53
2022-10-19T12:14:23.468Z,157.17
2022-10-19T12:16:54.721Z,150.80
2022-10-19T12:19:24.174Z,153.27
2022-10-19T12:21:53.444Z,141.10
2022-10-19T12:24:24.791Z,150.47
2022-10-19T12:26:53.765Z,152.77
2022-10-19T12:29:24.483Z,157.23
2022-10-19T12:31:53.734Z,154.23
2022-10-19T12:34:33.042Z,142.93
2022-10-19T12:37:04.771Z,152.83
2022-10-19T12:39:37.678Z,153.73
2022-10-19T12:42:12.084Z,153.70
2022-10-19T12:44:58.838Z,149.03
2022-10-19T12:47:27.426Z,152.53
2022-10-19T12:49:56.096Z,139.73
2022-10-19T12:52:39.024Z,137.13
2022-10-19T12:55:30.792Z,154.97
2022-10-19T12:58:01.571Z,140.50
2022-10-19T13:00:32.049Z,154.53
2022-10-19T13:03:02.612Z,135.87
2022-10-19T13:05:31.940Z,155.90
2022-10-19T13:08:02.398Z,134.03
2022-10-19T13:10:32.780Z,160.27
2022-10-19T13:13:01.542Z,158.50
2022-10-19T13:15:56.464Z,161.50
2022-10-19T13:19:09.279Z,140.87
2022-10-19T13:21:54.844Z,143.90
2022-10-19T13:24:34.754Z,154.97
2022-10-19T13:27:39.574Z,167.63
2022-10-19T13:30:48.700Z,136.67
2022-10-19T13:33:45.365Z,152.00
2022-10-19T13:36:13.483Z,161.73
2022-10-19T13:38:42.083Z,167.97
2022-10-19T13:41:19.242Z,158.07
2022-10-19T13:43:59.089Z,147.67
2022-10-19T13:46:41.285Z,145.80
2022-10-19T13:49:44.834Z,147.07
2022-10-19T13:52:51.191Z,152.70
2022-10-19T13:55:46.440Z,147.57
2022-10-19T13:58:32.353Z,152.10
2022-10-19T14:01:10.369Z,147.63
2022-10-19T14:03:59.457Z,138.47
2022-10-19T14:06:28.800Z,152.67
2022-10-19T14:09:29.621Z,151.10
2022-10-19T14:12:06.283Z,143.60
2022-10-19T14:19:54.322Z,155.33
2022-10-19T14:22:25.889Z,163.23
2022-10-19T14:24:53.998Z,147.93
2022-10-19T14:27:24.699Z,151.67
2022-10-19T14:29:54.776Z,147.87
2022-10-19T14:32:25.693Z,155.33
2022-10-19T14:34:55.969Z,155.83
2022-10-19T14:37:25.742Z,156.27
2022-10-19T14:40:05.452Z,151.10
2022-10-19T14:42:40.993Z,157.60
2022-10-19T14:45:15.389Z,151.43
2022-10-19T14:47:59.019Z,145.63
2022-10-19T14:50:34.035Z,151.13
2022-10-19T14:53:05.209Z,152.93
2022-10-19T14:55:36.529Z,146.43
2022-10-19T14:58:07.056Z,147.87
2022-10-19T15:00:34.803Z,145.30
2022-10-19T15:03:05.329Z,152.00
2022-10-19T15:05:35.823Z,156.23
2022-10-19T15:08:09.704Z,154.27
2022-10-19T15:10:42.597Z,140.83
2022-10-19T15:13:20.333Z,153.77
2022-10-19T15:15:51.575Z,148.17
2022-10-19T15:18:43.525Z,145.50
2022-10-19T15:21:14.600Z,164.53
2022-10-19T15:23:43.963Z,147.13
2022-10-19T15:26:18.894Z,155.17
2022-10-19T15:28:47.183Z,161.60
2022-10-19T15:31:17.515Z,149.47
2022-10-19T15:33:49.066Z,153.33
2022-10-19T15:36:19.945Z,157.97
2022-10-19T15:38:48.842Z,167.43
2022-10-19T15:41:19.938Z,148.63
2022-10-19T15:43:50.278Z,148.70
2022-10-19T15:46:56.403Z,154.23
2022-10-19T15:49:56.434Z,155.10
2022-10-19T15:52:26.364Z,149.00
2022-10-19T15:54:56.377Z,154.27
2022-10-19T15:57:28.246Z,147.20
2022-10-19T15:59:57.478Z,154.93
2022-10-19T16:02:26.029Z,153.53
2022-10-19T16:04:54.092Z,145.63
2022-10-19T16:07:27.740Z,152.37
2022-10-19T16:09:55.631Z,153.97
2022-10-19T16:12:23.678Z,148.63
2022-10-19T16:14:51.547Z,152.47
2022-10-19T16:17:19.337Z,145.47
2022-10-19T16:19:47.201Z,153.57
2022-10-19T16:22:16.364Z,154.70
2022-10-19T16:24:45.370Z,149.43
2022-10-19T16:27:15.061Z,152.57
2022-10-19T16:29:43.246Z,154.13
2022-10-19T16:32:10.961Z,147.70
2022-10-19T16:34:38.626Z,141.93
2022-10-19T16:37:07.264Z,154.47
2022-10-19T16:39:35.520Z,150.30
2022-10-19T16:42:04.715Z,148.47
2022-10-19T16:44:32.887Z,145.57
2022-10-19T16:47:00.554Z,154.93
2022-10-19T16:49:28.244Z,147.73
2022-10-19T16:51:57.466Z,150.13
2022-10-19T16:54:26.472Z,153.23
2022-10-19T16:56:55.536Z,150.90
2022-10-19T16:59:24.584Z,144.30
2022-10-19T17:01:52.318Z,156.93
2022-10-19T17:04:19.953Z,146.87
2022-10-19T17:06:47.755Z,151.70
2022-10-19T17:09:41.275Z,141.10
2022-10-19T17:12:03.031Z,149.57
2022-10-19T17:14:32.021Z,148.67
2022-10-19T17:16:59.834Z,148.07
2022-10-19T17:19:27.767Z,154.40
2022-10-19T17:21:56.438Z,155.13
2022-10-19T17:24:24.481Z,150.73
2022-10-19T17:26:53.063Z,153.97
2022-10-19T17:29:21.161Z,149.23
2022-10-19T17:31:50.349Z,151.03
2022-10-19T17:34:18.698Z,154.47
2022-10-19T17:36:46.887Z,151.00
2022-10-19T17:39:17.643Z,151.07
2022-10-19T17:41:45.775Z,141.23
2022-10-19T17:44:13.962Z,147.07
2022-10-19T17:46:41.629Z,149.37
2022-10-19T17:49:10.856Z,154.13
2022-10-19T17:51:39.708Z,150.07
2022-10-19T17:54:09.500Z,148.67
2022-10-19T17:56:37.955Z,140.43
2022-10-19T17:59:07.904Z,155.07
2022-10-19T18:01:36.264Z,148.77
2022-10-19T18:04:04.010Z,149.53
2022-10-19T18:06:35.341Z,151.83
2022-10-19T18:09:05.529Z,149.87
2022-10-19T18:11:36.028Z,148.30
2022-10-19T18:14:05.109Z,152.43
2022-10-19T18:16:35.857Z,148.83
2022-10-19T18:19:04.873Z,150.67
2022-10-19T18:21:35.821Z,149.80
2022-10-19T18:24:04.063Z,148.93
2022-10-19T18:26:32.886Z,142.30
2022-10-19T18:29:02.182Z,159.20
2022-10-19T18:31:30.931Z,145.17
2022-10-19T18:33:59.773Z,157.30
2022-10-19T18:36:27.646Z,150.53
2022-10-19T18:38:58.089Z,152.53
2022-10-19T18:41:26.622Z,152.27
2022-10-19T18:43:55.518Z,155.90
2022-10-19T18:46:24.296Z,139.20
2022-10-19T18:48:52.467Z,155.77
2022-10-19T18:51:21.985Z,141.43
2022-10-19T18:53:49.978Z,150.93
2022-10-19T18:56:20.265Z,149.07
2022-10-19T18:58:48.074Z,159.30
2022-10-19T19:01:17.771Z,150.43
2022-10-19T19:03:47.446Z,151.43
2022-10-19T19:06:16.453Z,140.40
2022-10-19T19:11:19.721Z,145.27
2022-10-19T19:13:48.900Z,149.37
2022-10-19T19:16:16.581Z,150.20
2022-10-19T19:18:44.217Z,151.63
2022-10-19T19:21:15.514Z,144.50
2022-10-19T19:23:43.512Z,151.17
2022-10-19T19:26:12.904Z,152.67
2022-10-19T19:28:43.492Z,155.57
2022-10-19T19:31:15.834Z,147.40
2022-10-19T19:33:44.084Z,138.53
2022-10-19T19:36:14.029Z,148.23
2022-10-19T19:38:41.920Z,154.37
2022-10-19T19:41:12.450Z,147.27
2022-10-19T19:43:42.456Z,151.37
2022-10-19T19:46:13.006Z,148.77
2022-10-19T19:48:41.981Z,154.77
2022-10-19T19:51:10.234Z,149.07
2022-10-19T19:53:38.672Z,141.83
2022-10-19T19:56:07.464Z,142.53
2022-10-19T19:58:35.463Z,148.80
2022-10-19T20:01:12.424Z,139.17
2022-10-19T20:03:41.549Z,144.00
2022-10-19T20:06:09.798Z,140.23
2022-10-19T20:08:37.992Z,164.10
2022-10-19T20:11:07.364Z,91.90
2022-10-19T20:13:35.680Z,56.83
2022-10-19T20:16:09.757Z,52.55
2022-10-19T20:21:06.071Z,145.15
2022-10-19T20:23:34.206Z,94.40
2022-10-19T20:26:01.835Z,92.55
2022-10-19T20:28:29.978Z,85.47
2022-10-19T20:31:01.921Z,81.18
2022-10-19T20:33:31.898Z,87.28
2022-10-19T20:36:04.349Z,91.32
2022-10-19T20:38:31.997Z,97.80
2022-10-19T20:41:01.056Z,95.25
2022-10-19T20:43:30.727Z,96.07
2022-10-19T20:46:03.237Z,95.17
2022-10-19T20:48:32.292Z,97.20
2022-10-19T20:51:09.753Z,97.30
2022-10-19T20:53:37.416Z,96.33
2022-10-19T20:56:06.415Z,97.63
2022-10-19T20:58:35.052Z,88.47
2022-10-19T21:01:07.658Z,100.18
2022-10-19T21:03:37.073Z,98.55
2022-10-19T21:06:06.256Z,100.88
2022-10-19T21:08:34.637Z,100.60
2022-10-19T21:11:02.320Z,104.00
2022-10-19T21:13:29.945Z,103.78
2022-10-19T21:15:57.606Z,103.88
2022-10-19T21:18:25.294Z,90.47
2022-10-19T21:20:54.298Z,102.63
2022-10-19T21:23:21.941Z,102.30
2022-10-19T21:25:55.568Z,89.38
2022-10-19T21:28:23.186Z,98.90
2022-10-19T21:30:50.807Z,101.53
2022-10-19T21:33:18.446Z,102.70
2022-10-19T21:35:46.163Z,106.00
2022-10-19T21:38:15.204Z,101.40
2022-10-19T21:40:42.838Z,104.17
2022-10-19T21:43:11.246Z,104.30
2022-10-19T21:45:38.921Z,105.10
2022-10-19T21:48:07.058Z,106.00
2022-10-19T21:50:34.712Z,107.23
2022-10-19T21:53:02.863Z,109.63
2022-10-19T21:55:35.756Z,105.53
2022-10-19T21:58:03.929Z,105.50
2022-10-19T22:00:31.773Z,106.20
2022-10-19T22:02:59.391Z,97.00
2022-10-19T22:05:27.033Z,106.53
2022-10-19T22:07:54.690Z,106.73
2022-10-19T22:10:22.444Z,107.50
2022-10-19T22:12:51.478Z,97.63
2022-10-19T22:15:19.286Z,107.60
2022-10-19T22:17:46.936Z,100.38
2022-10-19T22:20:14.602Z,111.78
2022-10-19T22:22:42.209Z,102.80
2022-10-19T22:25:10.278Z,103.87
2022-10-19T22:27:37.897Z,112.37
2022-10-19T22:30:08.126Z,110.67
2022-10-19T22:32:36.085Z,109.73
2022-10-19T22:35:04.912Z,111.30
2022-10-19T22:37:32.629Z,109.40
2022-10-19T22:40:00.280Z,110.93
2022-10-19T22:42:27.902Z,110.50
2022-10-19T22:44:55.530Z,106.47
2022-10-19T22:47:24.700Z,114.03
2022-10-19T22:49:52.323Z,109.27
2022-10-19T22:52:19.925Z,108.83
2022-10-19T22:54:47.560Z,111.47
2022-10-19T22:57:15.200Z,108.37
2022-10-19T22:59:42.985Z,110.13
2022-10-19T23:02:10.589Z,102.47
2022-10-19T23:04:39.582Z,108.28
2022-10-19T23:07:07.267Z,104.38
2022-10-19T23:09:34.949Z,112.27
2022-10-19T23:12:02.643Z,115.80
2022-10-19T23:14:30.366Z,115.10
2022-10-19T23:16:58.053Z,114.47
2022-10-19T23:19:25.745Z,110.60
2022-10-19T23:21:54.774Z,112.57
2022-10-19T23:24:22.577Z,108.70
2022-10-19T23:26:50.197Z,115.47
2022-10-19T23:29:17.801Z,107.63
2022-10-19T23:31:45.530Z,106.03
2022-10-19T23:34:13.157Z,115.77
2022-10-19T23:36:40.792Z,114.00
2022-10-19T23:39:09.768Z,117.83
2022-10-19T23:41:37.506Z,112.63
2022-10-19T23:44:06.189Z,116.57
2022-10-19T23:46:33.828Z,113.73
2022-10-19T23:49:01.451Z,115.50
2022-10-19T23:51:29.168Z,115.50
2022-10-19T23:53:56.867Z,115.17
2022-10-19T23:56:27.366Z,114.07
2022-10-19T23:58:55.323Z,119.83
